createdAt,value
2018-07-10T00:01:10.283Z,2.97
2018-07-10T00:04:15.016Z,2.70
2018-07-10T00:07:50.815Z,3.00
2018-07-10T00:10:34.575Z,2.20
2018-07-10T00:13:01.884Z,2.50
2018-07-10T00:15:29.188Z,2.57
2018-07-10T00:17:56.523Z,2.63
2018-07-10T00:20:24.899Z,3.77
2018-07-10T00:22:52.250Z,2.43
2018-07-10T00:25:20.583Z,2.60
2018-07-10T00:27:47.959Z,2.30
2018-07-10T00:30:18.444Z,3.87
2018-07-10T00:32:45.663Z,2.60
2018-07-10T00:35:12.954Z,3.47
2018-07-10T00:37:50.352Z,2.97
2018-07-10T00:40:17.601Z,2.33
2018-07-10T00:42:44.832Z,2.87
2018-07-10T00:45:13.167Z,2.43
2018-07-10T00:47:40.759Z,2.40
2018-07-10T00:50:08.089Z,4.40
2018-07-10T00:52:35.423Z,34.10
2018-07-10T00:55:03.066Z,2.43
2018-07-10T00:57:32.399Z,2.90
2018-07-10T01:00:00.359Z,2.40
2018-07-10T01:02:27.597Z,2.43
2018-07-10T01:04:54.843Z,2.67
2018-07-10T01:07:22.568Z,2.43
2018-07-10T01:09:49.837Z,2.80
2018-07-10T01:12:17.127Z,3.30
2018-07-10T01:14:44.368Z,40.57
2018-07-10T01:17:12.120Z,2.57
2018-07-10T01:19:39.583Z,2.77
2018-07-10T01:22:06.884Z,23.43
2018-07-10T01:24:34.191Z,2.40
2018-07-10T01:27:01.475Z,2.50
2018-07-10T01:29:35.489Z,2.63
2018-07-10T01:32:02.727Z,3.07
2018-07-10T01:34:30.075Z,2.60
2018-07-10T01:36:57.430Z,2.73
2018-07-10T01:39:24.663Z,2.37
2018-07-10T01:41:51.917Z,3.40
2018-07-10T01:44:19.227Z,2.00
2018-07-10T01:46:46.468Z,2.17
2018-07-10T01:49:13.725Z,2.50
2018-07-10T01:51:42.076Z,3.10
2018-07-10T01:54:09.343Z,3.23
2018-07-10T01:56:36.715Z,3.50
2018-07-10T01:59:04.176Z,3.27
2018-07-10T02:01:31.405Z,3.10
2018-07-10T02:03:58.902Z,1.10
2018-07-10T02:06:29.991Z,1.80
2018-07-10T02:08:57.835Z,2.23
2018-07-10T02:11:25.191Z,2.00
2018-07-10T02:13:52.546Z,2.53
2018-07-10T02:16:19.729Z,2.40
2018-07-10T02:18:46.975Z,2.23
2018-07-10T02:21:14.228Z,3.70
2018-07-10T02:23:43.947Z,2.63
2018-07-10T02:26:15.410Z,1.87
2018-07-10T02:28:42.887Z,2.50
2018-07-10T02:31:10.815Z,3.00
2018-07-10T02:33:38.125Z,2.13
2018-07-10T02:36:05.439Z,2.20
2018-07-10T02:41:02.213Z,2.23
2018-07-10T02:43:29.531Z,1.77
2018-07-10T02:45:57.100Z,2.20
2018-07-10T02:48:27.767Z,1.70
2018-07-10T02:50:55.922Z,1.20
2018-07-10T02:53:23.376Z,1.60
2018-07-10T02:55:50.843Z,1.70
2018-07-10T02:58:18.584Z,1.90
2018-07-10T03:00:46.026Z,1.33
2018-07-10T03:03:13.479Z,1.23
2018-07-10T03:05:40.979Z,1.50
2018-07-10T03:08:08.482Z,1.33
2018-07-10T03:10:35.906Z,1.93
2018-07-10T03:13:03.343Z,1.70
2018-07-10T03:15:31.076Z,1.80
2018-07-10T03:17:58.551Z,1.63
2018-07-10T03:20:26.053Z,1.77
2018-07-10T03:22:53.492Z,1.60
2018-07-10T03:25:21.959Z,1.33
2018-07-10T03:27:49.407Z,1.37
2018-07-10T03:30:16.855Z,1.33
2018-07-10T03:32:44.403Z,1.40
2018-07-10T03:35:11.911Z,1.60
2018-07-10T03:37:39.352Z,1.17
2018-07-10T03:40:06.807Z,1.40
2018-07-10T03:42:34.259Z,1.60
2018-07-10T03:45:01.721Z,1.30
2018-07-10T03:47:29.174Z,1.30
2018-07-10T03:49:56.607Z,1.20
2018-07-10T03:52:30.031Z,1.30
2018-07-10T03:54:57.944Z,1.57
2018-07-10T03:57:25.348Z,1.50
2018-07-10T03:59:55.286Z,1.50
2018-07-10T04:02:22.791Z,1.87
2018-07-10T04:04:50.215Z,1.07
2018-07-10T04:07:17.657Z,1.70
2018-07-10T04:09:45.144Z,1.30
2018-07-10T04:12:12.580Z,1.40
2018-07-10T04:14:40.796Z,1.30
2018-07-10T04:17:08.756Z,1.97
2018-07-10T04:19:36.160Z,1.37
2018-07-10T04:22:03.824Z,1.13
2018-07-10T04:24:31.239Z,2.07
2018-07-10T04:27:05.574Z,1.20
2018-07-10T04:30:10.015Z,1.77
2018-07-10T04:32:38.439Z,2.00
2018-07-10T04:35:06.312Z,2.10
2018-07-10T04:37:35.507Z,1.10
2018-07-10T04:40:03.715Z,1.20
2018-07-10T04:42:41.884Z,1.47
2018-07-10T04:45:10.791Z,1.10
2018-07-10T04:47:44.891Z,1.63
2018-07-10T04:50:51.880Z,0.83
2018-07-10T04:53:32.912Z,1.10
2018-07-10T04:56:00.117Z,1.00
2018-07-10T04:58:27.343Z,1.83
2018-07-10T05:00:56.486Z,0.97
2018-07-10T05:03:24.633Z,0.87
2018-07-10T05:05:51.987Z,0.80
2018-07-10T05:08:19.574Z,1.17
2018-07-10T05:10:47.207Z,1.60
2018-07-10T05:13:14.424Z,0.80
2018-07-10T05:15:41.656Z,0.90
2018-07-10T05:18:10.191Z,1.20
2018-07-10T05:20:40.980Z,1.00
2018-07-10T05:23:08.327Z,1.03
2018-07-10T05:25:36.979Z,0.90
2018-07-10T05:28:04.200Z,0.80
2018-07-10T05:30:31.690Z,3.30
2018-07-10T05:32:58.916Z,1.23
2018-07-10T05:35:26.162Z,0.80
2018-07-10T05:37:53.384Z,0.90
2018-07-10T05:40:24.456Z,0.80
2018-07-10T05:42:51.736Z,0.83
2018-07-10T05:45:21.499Z,1.03
2018-07-10T05:47:52.471Z,0.80
2018-07-10T05:50:19.688Z,0.67
2018-07-10T05:52:46.902Z,1.13
2018-07-10T05:55:16.496Z,1.90
2018-07-10T05:57:43.979Z,1.17
2018-07-10T06:00:11.252Z,1.00
2018-07-10T06:02:38.640Z,1.10
2018-07-10T06:05:05.972Z,1.10
2018-07-10T06:07:33.343Z,0.77
2018-07-10T06:10:00.671Z,0.90
2018-07-10T06:12:27.931Z,0.50
2018-07-10T06:14:56.098Z,1.43
2018-07-10T06:17:23.460Z,1.17
2018-07-10T06:19:51.049Z,0.93
2018-07-10T06:22:18.334Z,0.80
2018-07-10T06:24:45.595Z,0.50
2018-07-10T06:27:12.932Z,1.30
2018-07-10T06:30:02.388Z,0.80
2018-07-10T06:32:34.332Z,0.90
2018-07-10T06:35:06.531Z,0.70
2018-07-10T06:37:35.836Z,1.40
2018-07-10T06:40:05.529Z,1.20
2018-07-10T06:42:37.415Z,1.10
2018-07-10T06:45:05.429Z,0.97
2018-07-10T06:47:45.207Z,1.60
2018-07-10T06:50:12.494Z,1.17
2018-07-10T06:52:41.385Z,1.03
2018-07-10T06:55:11.807Z,0.80
2018-07-10T06:57:45.755Z,1.20
2018-07-10T07:00:13.079Z,1.07
2018-07-10T07:02:40.332Z,0.70
2018-07-10T07:05:07.815Z,1.07
2018-07-10T07:07:36.224Z,0.73
2018-07-10T07:10:07.751Z,0.87
2018-07-10T07:12:36.711Z,1.10
2018-07-10T07:15:06.407Z,1.27
2018-07-10T07:17:34.453Z,1.30
2018-07-10T07:20:01.803Z,1.00
2018-07-10T07:22:29.720Z,1.10
2018-07-10T07:24:56.971Z,1.73
2018-07-10T07:27:24.243Z,1.33
2018-07-10T07:29:51.695Z,1.50
2018-07-10T07:32:19.319Z,1.30
2018-07-10T07:34:46.554Z,2.50
2018-07-10T07:37:13.853Z,1.40
2018-07-10T07:39:42.814Z,1.30
2018-07-10T07:42:10.047Z,1.50
2018-07-10T07:44:37.311Z,1.73
2018-07-10T07:47:04.657Z,1.80
2018-07-10T07:49:32.127Z,1.37
2018-07-10T07:51:59.362Z,1.20
2018-07-10T07:54:26.992Z,1.57
2018-07-10T07:56:54.220Z,1.40
2018-07-10T07:59:21.455Z,2.67
2018-07-10T08:01:48.843Z,3.30
2018-07-10T08:04:16.077Z,2.13
2018-07-10T08:06:43.295Z,1.87
2018-07-10T08:09:10.519Z,1.93
2018-07-10T08:11:37.786Z,1.77
2018-07-10T08:14:05.007Z,1.80
2018-07-10T08:16:32.224Z,1.40
2018-07-10T08:19:00.327Z,1.70
2018-07-10T08:21:27.650Z,1.27
2018-07-10T08:23:54.948Z,1.20
2018-07-10T08:26:22.151Z,1.20
2018-07-10T08:28:49.592Z,0.97
2018-07-10T08:31:16.824Z,1.23
2018-07-10T08:33:44.541Z,1.30
2018-07-10T08:36:11.732Z,1.60
2018-07-10T08:38:40.256Z,1.80
2018-07-10T08:41:08.743Z,3.00
2018-07-10T08:43:35.958Z,1.90
2018-07-10T08:46:03.171Z,1.93
2018-07-10T08:48:30.667Z,1.60
2018-07-10T08:50:58.098Z,2.00
2018-07-10T08:53:25.395Z,1.70
2018-07-10T08:55:52.655Z,1.60
2018-07-10T08:58:19.866Z,1.43
2018-07-10T09:00:47.155Z,1.17
2018-07-10T09:03:14.378Z,1.63
2018-07-10T09:05:41.681Z,1.57
2018-07-10T09:08:09.307Z,1.50
2018-07-10T09:10:36.631Z,1.20
2018-07-10T09:13:03.825Z,1.50
2018-07-10T09:15:31.535Z,0.90
2018-07-10T09:17:59.451Z,1.33
2018-07-10T09:20:27.451Z,1.40
2018-07-10T09:22:54.846Z,3.77
2018-07-10T09:25:22.347Z,3.70
2018-07-10T09:27:50.887Z,3.57
2018-07-10T09:30:20.502Z,3.23
2018-07-10T09:32:47.896Z,3.33
2018-07-10T09:35:15.327Z,2.90
2018-07-10T09:37:44.524Z,3.00
2018-07-10T09:40:16.095Z,3.57
2018-07-10T09:42:52.711Z,3.63
2018-07-10T09:45:20.144Z,3.63
2018-07-10T09:47:47.581Z,4.27
2018-07-10T09:50:15.303Z,4.60
2018-07-10T09:52:42.795Z,5.17
2018-07-10T09:55:10.353Z,5.23
2018-07-10T09:57:37.983Z,4.60
2018-07-10T10:00:06.540Z,5.10
2018-07-10T10:02:34.938Z,4.53
2018-07-10T10:05:04.515Z,5.40
2018-07-10T10:07:31.974Z,4.57
2018-07-10T10:10:00.043Z,4.90
2018-07-10T10:12:27.584Z,5.10
2018-07-10T10:14:55.016Z,4.90
2018-07-10T10:17:23.067Z,5.10
2018-07-10T10:19:50.591Z,5.03
2018-07-10T10:22:18.300Z,5.17
2018-07-10T10:24:45.724Z,4.83
2018-07-10T10:27:13.228Z,4.50
2018-07-10T10:29:40.753Z,4.53
2018-07-10T10:32:08.358Z,4.77
2018-07-10T10:34:35.988Z,4.20
2018-07-10T10:37:03.516Z,3.90
2018-07-10T10:39:30.983Z,4.50
2018-07-10T10:41:59.523Z,4.40
2018-07-10T10:44:26.943Z,4.30
2018-07-10T10:46:54.371Z,5.10
2018-07-10T10:49:23.329Z,5.07
2018-07-10T10:51:50.767Z,4.67
2018-07-10T10:54:18.247Z,5.17
2018-07-10T10:56:45.667Z,5.03
2018-07-10T10:59:13.295Z,6.13
2018-07-10T11:01:40.833Z,4.50
2018-07-10T11:04:08.464Z,4.87
2018-07-10T11:06:35.921Z,4.97
2018-07-10T11:09:04.396Z,4.90
2018-07-10T11:11:31.853Z,4.73
2018-07-10T11:14:01.099Z,5.00
2018-07-10T11:16:28.563Z,6.10
2018-07-10T11:19:00.973Z,4.97
2018-07-10T11:21:33.970Z,4.50
2018-07-10T11:24:01.559Z,4.60
2018-07-10T11:26:33.181Z,4.47
2018-07-10T11:29:01.130Z,4.90
2018-07-10T11:31:28.379Z,4.73
2018-07-10T11:33:55.629Z,5.43
2018-07-10T11:36:22.954Z,4.60
2018-07-10T11:38:50.232Z,4.53
2018-07-10T11:41:17.472Z,4.60
2018-07-10T11:43:44.731Z,6.10
2018-07-10T11:46:12.054Z,4.77
2018-07-10T11:48:39.399Z,5.17
2018-07-10T11:51:06.664Z,5.33
2018-07-10T11:53:33.924Z,6.07
2018-07-10T11:56:01.175Z,5.47
2018-07-10T11:58:28.435Z,6.40
2018-07-10T12:00:55.699Z,6.83
2018-07-10T12:03:22.953Z,6.80
2018-07-10T12:05:51.328Z,6.17
2018-07-10T12:08:18.699Z,6.90
2018-07-10T12:10:52.775Z,7.90
2018-07-10T12:13:20.032Z,6.40
2018-07-10T12:15:47.286Z,7.50
2018-07-10T12:18:14.867Z,9.27
2018-07-10T12:20:42.627Z,7.13
2018-07-10T12:23:10.955Z,7.13
2018-07-10T12:25:41.842Z,6.53
2018-07-10T12:28:10.374Z,8.20
2018-07-10T12:30:37.935Z,8.67
2018-07-10T12:33:05.631Z,7.77
2018-07-10T12:35:32.917Z,9.53
2018-07-10T12:38:00.196Z,9.20
2018-07-10T12:40:27.443Z,10.80
2018-07-10T12:42:54.710Z,10.43
2018-07-10T12:45:21.950Z,9.80
2018-07-10T12:47:50.295Z,10.53
2018-07-10T12:50:17.652Z,10.67
2018-07-10T12:52:45.025Z,9.53
2018-07-10T12:55:12.984Z,9.57
2018-07-10T12:57:43.516Z,8.53
2018-07-10T13:00:11.399Z,9.90
2018-07-10T13:02:41.457Z,8.93
2018-07-10T13:05:09.592Z,8.50
2018-07-10T13:07:36.890Z,9.53
2018-07-10T13:10:07.730Z,9.53
2018-07-10T13:12:34.983Z,11.10
2018-07-10T13:15:03.443Z,11.00
2018-07-10T13:17:30.688Z,13.20
2018-07-10T13:20:03.850Z,13.47
2018-07-10T13:22:34.667Z,11.40
2018-07-10T13:25:02.014Z,13.70
2018-07-10T13:27:29.295Z,12.40
2018-07-10T13:29:56.611Z,11.90
2018-07-10T13:32:24.005Z,11.13
2018-07-10T13:34:51.756Z,11.80
2018-07-10T13:37:22.623Z,12.20
2018-07-10T13:39:49.935Z,12.17
2018-07-10T13:42:17.267Z,13.43
2018-07-10T13:44:45.064Z,11.77
2018-07-10T13:47:12.376Z,13.13
2018-07-10T13:49:40.028Z,12.93
2018-07-10T13:52:07.399Z,12.53
2018-07-10T13:54:34.633Z,13.10
2018-07-10T13:57:02.053Z,15.00
2018-07-10T13:59:29.284Z,13.60
2018-07-10T14:01:56.525Z,14.13
2018-07-10T14:04:23.886Z,13.10
2018-07-10T14:06:52.252Z,12.63
2018-07-10T14:09:19.464Z,12.40
2018-07-10T14:11:46.739Z,12.20
2018-07-10T14:14:14.058Z,12.70
2018-07-10T14:16:41.349Z,12.83
2018-07-10T14:19:09.907Z,11.17
2018-07-10T14:21:39.386Z,11.30
2018-07-10T14:24:06.808Z,14.00
2018-07-10T14:26:34.265Z,10.30
2018-07-10T14:29:01.876Z,10.20
2018-07-10T14:31:29.319Z,10.80
2018-07-10T14:33:56.806Z,10.37
2018-07-10T14:36:24.344Z,12.13
2018-07-10T14:38:51.774Z,12.33
2018-07-10T14:41:19.272Z,13.80
2018-07-10T14:43:46.771Z,13.57
2018-07-10T14:46:15.595Z,12.30
2018-07-10T14:48:47.014Z,13.13
2018-07-10T14:51:17.611Z,12.20
2018-07-10T14:53:45.261Z,13.77
2018-07-10T14:56:12.812Z,12.57
2018-07-10T14:58:40.271Z,12.50
2018-07-10T15:01:07.859Z,13.40
2018-07-10T15:03:35.327Z,13.20
2018-07-10T15:06:02.925Z,13.67
2018-07-10T15:08:30.479Z,15.40
2018-07-10T15:10:58.934Z,16.70
2018-07-10T15:13:26.380Z,16.10
2018-07-10T15:15:59.480Z,16.83
2018-07-10T15:18:32.572Z,20.50
2018-07-10T15:21:00.030Z,18.83
2018-07-10T15:23:27.752Z,18.90
2018-07-10T15:25:56.364Z,16.80
2018-07-10T15:28:24.971Z,15.10
2018-07-10T15:30:52.572Z,18.10
2018-07-10T15:33:20.194Z,17.53
2018-07-10T15:35:48.001Z,17.37
2018-07-10T15:38:16.478Z,17.17
2018-07-10T15:40:44.757Z,18.33
2018-07-10T15:43:12.461Z,19.40
2018-07-10T15:45:40.584Z,18.70
2018-07-10T15:48:09.149Z,21.57
2018-07-10T15:50:36.717Z,17.40
2018-07-10T15:53:04.395Z,12.60
2018-07-10T15:55:35.618Z,11.20
2018-07-10T15:58:03.236Z,10.93
2018-07-10T16:00:30.777Z,8.10
2018-07-10T16:02:58.124Z,8.37
2018-07-10T16:05:25.671Z,9.10
2018-07-10T16:08:01.499Z,8.70
2018-07-10T16:10:28.891Z,9.80
2018-07-10T16:12:56.268Z,11.33
2018-07-10T16:15:25.860Z,10.50
2018-07-10T16:17:53.275Z,11.87
2018-07-10T16:20:20.784Z,12.37
2018-07-10T16:22:48.223Z,12.77
2018-07-10T16:25:25.610Z,14.03
2018-07-10T16:27:53.012Z,11.80
2018-07-10T16:30:24.959Z,11.70
2018-07-10T16:32:52.486Z,13.00
2018-07-10T16:35:23.020Z,13.40
2018-07-10T16:37:50.672Z,14.83
2018-07-10T16:40:18.048Z,12.37
2018-07-10T16:42:47.090Z,11.57
2018-07-10T16:45:19.063Z,12.30
2018-07-10T16:48:00.196Z,12.60
2018-07-10T16:50:34.172Z,11.47
2018-07-10T16:53:01.588Z,12.10
2018-07-10T16:55:30.127Z,10.50
2018-07-10T16:57:57.744Z,10.80
2018-07-10T17:00:27.096Z,11.23
2018-07-10T17:02:55.585Z,12.10
2018-07-10T17:05:23.880Z,11.17
2018-07-10T17:07:51.351Z,9.17
2018-07-10T17:10:18.836Z,9.37
2018-07-10T17:12:46.502Z,10.03
2018-07-10T17:15:13.988Z,10.20
2018-07-10T17:17:41.461Z,10.10
2018-07-10T17:20:09.218Z,9.07
2018-07-10T17:22:36.685Z,9.87
2018-07-10T17:25:04.112Z,9.67
2018-07-10T17:27:33.759Z,9.73
2018-07-10T17:30:02.379Z,8.90
2018-07-10T17:32:30.270Z,9.60
2018-07-10T17:34:57.929Z,11.07
2018-07-10T17:37:25.844Z,9.90
2018-07-10T17:39:53.350Z,9.67
2018-07-10T17:42:20.820Z,9.37
2018-07-10T17:44:48.389Z,8.30
2018-07-10T17:47:15.947Z,9.20
2018-07-10T17:49:43.722Z,8.90
2018-07-10T17:52:11.192Z,8.70
2018-07-10T17:54:38.614Z,9.00
2018-07-10T17:57:06.032Z,8.50
2018-07-10T17:59:33.430Z,8.70
2018-07-10T18:02:01.049Z,8.73
2018-07-10T18:04:29.180Z,10.77
2018-07-10T18:06:57.431Z,9.47
2018-07-10T18:09:24.917Z,9.90
2018-07-10T18:11:52.612Z,8.00
2018-07-10T18:14:20.115Z,7.43
2018-07-10T18:16:47.660Z,6.73
2018-07-10T18:19:15.109Z,7.47
2018-07-10T18:21:42.646Z,6.93
2018-07-10T18:24:10.101Z,7.70
2018-07-10T18:26:37.534Z,6.70
2018-07-10T18:29:05.043Z,7.27
2018-07-10T18:31:32.473Z,7.00
2018-07-10T18:33:59.986Z,6.70
2018-07-10T18:36:27.524Z,6.40
2018-07-10T18:38:55.105Z,6.40
2018-07-10T18:41:22.599Z,6.00
2018-07-10T18:43:50.035Z,5.73
2018-07-10T18:46:17.479Z,5.30
2018-07-10T18:48:45.096Z,6.00
2018-07-10T18:51:12.457Z,6.10
2018-07-10T18:53:40.835Z,6.07
2018-07-10T18:56:08.657Z,6.00
2018-07-10T18:58:44.770Z,5.60
2018-07-10T19:01:53.549Z,6.07
2018-07-10T19:04:26.477Z,5.30
2018-07-10T19:06:53.940Z,5.17
2018-07-10T19:09:33.588Z,5.33
2018-07-10T19:12:01.981Z,4.40
2018-07-10T19:14:29.468Z,4.40
2018-07-10T19:16:57.044Z,4.93
2018-07-10T19:19:24.673Z,4.40
2018-07-10T19:22:00.594Z,4.30
2018-07-10T19:24:27.929Z,5.47
2018-07-10T19:26:55.353Z,5.07
2018-07-10T19:29:27.640Z,5.10
2018-07-10T19:31:55.200Z,4.40
2018-07-10T19:34:22.783Z,4.83
2018-07-10T19:36:50.234Z,3.90
2018-07-10T19:39:17.883Z,4.13
2018-07-10T19:41:45.429Z,3.80
2018-07-10T19:44:13.074Z,4.30
2018-07-10T19:46:40.604Z,3.87
2018-07-10T19:49:08.260Z,3.73
2018-07-10T19:51:38.084Z,3.80
2018-07-10T19:54:07.981Z,4.10
2018-07-10T19:56:35.839Z,3.83
2018-07-10T19:59:03.818Z,7.50
2018-07-10T20:01:43.191Z,2.00
2018-07-10T20:04:17.439Z,3.73
2018-07-10T20:06:47.772Z,3.47
2018-07-10T20:09:16.555Z,5.60
2018-07-10T20:11:50.586Z,2.80
2018-07-10T20:14:18.271Z,3.43
2018-07-10T20:16:51.702Z,2.67
2018-07-10T20:19:24.303Z,3.30
2018-07-10T20:22:00.830Z,18.53
2018-07-10T20:24:28.674Z,48.87
2018-07-10T20:27:08.997Z,0.30
2018-07-10T20:29:45.873Z,1.70
2018-07-10T20:32:17.512Z,1.87
2018-07-10T20:34:51.823Z,3.00
2018-07-10T20:37:22.030Z,1.70
2018-07-10T20:39:49.527Z,2.10
2018-07-10T20:42:18.075Z,2.03
2018-07-10T20:44:57.775Z,1.23
2018-07-10T20:47:26.611Z,1.80
2018-07-10T20:49:55.028Z,1.87
2018-07-10T20:52:44.432Z,2.50
2018-07-10T20:55:11.956Z,2.00
2018-07-10T20:58:11.523Z,2.90
2018-07-10T21:00:42.651Z,2.40
2018-07-10T21:04:18.043Z,1.83
2018-07-10T21:06:52.892Z,4.40
2018-07-10T21:09:20.911Z,4.20
2018-07-10T21:11:58.196Z,4.77
2018-07-10T21:15:33.396Z,4.17
2018-07-10T21:18:03.308Z,4.13
2018-07-10T21:21:34.340Z,4.27
2018-07-10T21:24:08.679Z,3.87
2018-07-10T21:26:42.028Z,4.00
2018-07-10T21:31:28.758Z,4.73
2018-07-10T21:33:59.847Z,4.50
2018-07-10T21:36:33.973Z,4.43
2018-07-10T21:39:05.552Z,4.77
2018-07-10T21:41:44.206Z,5.13
2018-07-10T21:46:24.857Z,5.00
2018-07-10T21:49:17.820Z,6.23
2018-07-10T21:51:47.627Z,6.30
2018-07-10T21:54:15.060Z,4.60
2018-07-10T21:56:42.632Z,4.70
2018-07-10T21:59:11.328Z,4.20
2018-07-10T22:01:59.029Z,4.90
2018-07-10T22:04:28.394Z,4.83
2018-07-10T22:06:57.024Z,4.70
2018-07-10T22:09:25.276Z,5.20
2018-07-10T22:11:53.195Z,4.43
2018-07-10T22:14:20.944Z,4.63
2018-07-10T22:16:49.512Z,4.73
2018-07-10T22:19:17.452Z,4.00
2018-07-10T22:21:45.013Z,3.60
2018-07-10T22:24:13.339Z,4.17
2018-07-10T22:26:40.806Z,3.47
2018-07-10T22:29:08.378Z,3.70
2018-07-10T22:31:41.581Z,3.30
2018-07-10T22:34:08.996Z,3.60
2018-07-10T22:36:36.483Z,3.47
2018-07-10T22:39:04.500Z,3.67
2018-07-10T22:41:31.980Z,3.17
2018-07-10T22:44:00.155Z,3.53
2018-07-10T22:46:27.723Z,4.03
2018-07-10T22:49:01.556Z,3.40
2018-07-10T22:51:30.234Z,3.93
2018-07-10T22:54:01.988Z,4.00
2018-07-10T22:56:30.417Z,3.40
2018-07-10T22:58:57.939Z,3.90
2018-07-10T23:01:25.412Z,3.80
2018-07-10T23:03:52.916Z,3.40
2018-07-10T23:06:20.492Z,3.03
2018-07-10T23:08:48.012Z,3.30
2018-07-10T23:11:15.483Z,3.20
2018-07-10T23:13:44.416Z,3.30
2018-07-10T23:16:12.204Z,3.43
2018-07-10T23:18:40.231Z,2.93
2018-07-10T23:21:10.896Z,2.97
2018-07-10T23:23:38.781Z,2.53
2018-07-10T23:26:06.263Z,2.90
2018-07-10T23:28:33.979Z,2.60
2018-07-10T23:31:02.768Z,2.83
2018-07-10T23:33:31.331Z,13.63
2018-07-10T23:36:00.679Z,2.90
2018-07-10T23:38:33.708Z,2.90
2018-07-10T23:41:01.355Z,2.60
2018-07-10T23:43:33.848Z,2.67
2018-07-10T23:46:02.732Z,2.97
2018-07-10T23:48:30.581Z,2.73
2018-07-10T23:50:58.012Z,2.73
2018-07-10T23:53:38.130Z,2.97
2018-07-10T23:56:05.729Z,2.80
2018-07-10T23:58:33.423Z,3.53
